sensor_id;sensor_type;location;lat;lon;timestamp;P1;durP1;ratioP1;P2;durP2;ratioP2
51987;SDS011;38003;52.012;4.346;2023-11-21T00:00:05;47.73;;;44.93;;
51987;SDS011;38003;52.012;4.346;2023-11-21T00:02:38;43.27;;;40.50;;
51987;SDS011;38003;52.012;4.346;2023-11-21T00:05:07;41.97;;;39.17;;
51987;SDS011;38003;52.012;4.346;2023-11-21T00:07:36;38.40;;;35.77;;
51987;SDS011;38003;52.012;4.346;2023-11-21T00:10:07;35.10;;;32.50;;
51987;SDS011;38003;52.012;4.346;2023-11-21T00:12:36;37.30;;;34.70;;
51987;SDS011;38003;52.012;4.346;2023-11-21T00:15:08;33.47;;;31.27;;
51987;SDS011;38003;52.012;4.346;2023-11-21T00:17:38;35.77;;;33.37;;
51987;SDS011;38003;52.012;4.346;2023-11-21T00:20:06;34.23;;;31.87;;
51987;SDS011;38003;52.012;4.346;2023-11-21T00:22:35;36.47;;;33.87;;
51987;SDS011;38003;52.012;4.346;2023-11-21T00:25:04;40.97;;;38.27;;
51987;SDS011;38003;52.012;4.346;2023-11-21T00:27:33;45.90;;;43.00;;
51987;SDS011;38003;52.012;4.346;2023-11-21T00:30:02;55.67;;;51.97;;
51987;SDS011;38003;52.012;4.346;2023-11-21T00:32:32;59.03;;;55.47;;
51987;SDS011;38003;52.012;4.346;2023-11-21T00:35:00;50.70;;;47.60;;
51987;SDS011;38003;52.012;4.346;2023-11-21T00:37:28;49.57;;;46.77;;
51987;SDS011;38003;52.012;4.346;2023-11-21T00:39:58;47.00;;;44.30;;
51987;SDS011;38003;52.012;4.346;2023-11-21T00:42:27;46.13;;;43.17;;
51987;SDS011;38003;52.012;4.346;2023-11-21T00:44:56;44.53;;;41.60;;
51987;SDS011;38003;52.012;4.346;2023-11-21T00:47:24;54.33;;;50.93;;
51987;SDS011;38003;52.012;4.346;2023-11-21T00:49:53;59.03;;;55.53;;
51987;SDS011;38003;52.012;4.346;2023-11-21T00:52:21;54.47;;;51.17;;
51987;SDS011;38003;52.012;4.346;2023-11-21T00:54:49;51.50;;;48.43;;
51987;SDS011;38003;52.012;4.346;2023-11-21T00:57:18;45.17;;;42.57;;
51987;SDS011;38003;52.012;4.346;2023-11-21T00:59:46;49.83;;;47.03;;
51987;SDS011;38003;52.012;4.346;2023-11-21T01:02:16;54.70;;;51.37;;
51987;SDS011;38003;52.012;4.346;2023-11-21T01:04:44;56.17;;;53.00;;
51987;SDS011;38003;52.012;4.346;2023-11-21T01:07:14;49.23;;;46.20;;
51987;SDS011;38003;52.012;4.346;2023-11-21T01:09:42;47.03;;;44.03;;
51987;SDS011;38003;52.012;4.346;2023-11-21T01:12:11;50.67;;;47.53;;
51987;SDS011;38003;52.012;4.346;2023-11-21T01:14:39;43.03;;;40.73;;
51987;SDS011;38003;52.012;4.346;2023-11-21T01:17:07;42.80;;;40.07;;
51987;SDS011;38003;52.012;4.346;2023-11-21T01:19:37;41.03;;;38.13;;
51987;SDS011;38003;52.012;4.346;2023-11-21T01:22:05;46.70;;;43.70;;
51987;SDS011;38003;52.012;4.346;2023-11-21T01:24:34;39.53;;;36.67;;
51987;SDS011;38003;52.012;4.346;2023-11-21T01:27:03;42.90;;;40.27;;
51987;SDS011;38003;52.012;4.346;2023-11-21T01:29:31;51.63;;;48.37;;
51987;SDS011;38003;52.012;4.346;2023-11-21T01:32:01;46.60;;;44.00;;
51987;SDS011;38003;52.012;4.346;2023-11-21T01:34:30;49.47;;;46.63;;
51987;SDS011;38003;52.012;4.346;2023-11-21T01:37:00;56.40;;;53.20;;
51987;SDS011;38003;52.012;4.346;2023-11-21T01:39:30;55.60;;;52.00;;
51987;SDS011;38003;52.012;4.346;2023-11-21T01:41:59;51.17;;;48.07;;
51987;SDS011;38003;52.012;4.346;2023-11-21T01:44:27;40.77;;;38.10;;
51987;SDS011;38003;52.012;4.346;2023-11-21T01:46:55;42.40;;;39.60;;
51987;SDS011;38003;52.012;4.346;2023-11-21T01:49:24;47.90;;;44.90;;
51987;SDS011;38003;52.012;4.346;2023-11-21T01:51:53;50.00;;;46.90;;
51987;SDS011;38003;52.012;4.346;2023-11-21T01:54:22;44.17;;;41.67;;
51987;SDS011;38003;52.012;4.346;2023-11-21T01:56:51;45.67;;;42.70;;
51987;SDS011;38003;52.012;4.346;2023-11-21T01:59:19;52.00;;;48.93;;
51987;SDS011;38003;52.012;4.346;2023-11-21T02:01:48;53.47;;;50.40;;
51987;SDS011;38003;52.012;4.346;2023-11-21T02:04:17;51.80;;;48.83;;
51987;SDS011;38003;52.012;4.346;2023-11-21T02:06:47;50.87;;;47.67;;
51987;SDS011;38003;52.012;4.346;2023-11-21T02:09:17;50.90;;;47.97;;
51987;SDS011;38003;52.012;4.346;2023-11-21T02:11:52;52.10;;;48.93;;
51987;SDS011;38003;52.012;4.346;2023-11-21T02:14:24;53.73;;;50.67;;
51987;SDS011;38003;52.012;4.346;2023-11-21T02:16:54;55.03;;;51.87;;
51987;SDS011;38003;52.012;4.346;2023-11-21T02:19:24;57.00;;;53.73;;
51987;SDS011;38003;52.012;4.346;2023-11-21T02:21:52;56.17;;;53.00;;
51987;SDS011;38003;52.012;4.346;2023-11-21T02:24:22;60.23;;;56.80;;
51987;SDS011;38003;52.012;4.346;2023-11-21T02:26:51;53.63;;;50.97;;
51987;SDS011;38003;52.012;4.346;2023-11-21T02:29:19;57.63;;;54.53;;
51987;SDS011;38003;52.012;4.346;2023-11-21T02:31:52;62.93;;;59.40;;
51987;SDS011;38003;52.012;4.346;2023-11-21T02:34:21;63.50;;;60.10;;
51987;SDS011;38003;52.012;4.346;2023-11-21T02:36:51;62.17;;;58.73;;
51987;SDS011;38003;52.012;4.346;2023-11-21T02:39:20;66.43;;;62.17;;
51987;SDS011;38003;52.012;4.346;2023-11-21T02:41:51;70.60;;;67.00;;
51987;SDS011;38003;52.012;4.346;2023-11-21T02:44:19;75.10;;;71.23;;
51987;SDS011;38003;52.012;4.346;2023-11-21T02:46:48;76.40;;;72.47;;
51987;SDS011;38003;52.012;4.346;2023-11-21T02:49:16;88.03;;;83.47;;
51987;SDS011;38003;52.012;4.346;2023-11-21T02:51:44;87.17;;;82.83;;
51987;SDS011;38003;52.012;4.346;2023-11-21T02:54:12;84.00;;;79.77;;
51987;SDS011;38003;52.012;4.346;2023-11-21T02:56:43;78.93;;;74.93;;
51987;SDS011;38003;52.012;4.346;2023-11-21T02:59:13;69.80;;;66.07;;
51987;SDS011;38003;52.012;4.346;2023-11-21T03:01:42;66.80;;;63.30;;
51987;SDS011;38003;52.012;4.346;2023-11-21T03:04:10;80.30;;;76.33;;
51987;SDS011;38003;52.012;4.346;2023-11-21T03:06:44;81.83;;;77.80;;
51987;SDS011;38003;52.012;4.346;2023-11-21T03:09:12;84.37;;;80.40;;
51987;SDS011;38003;52.012;4.346;2023-11-21T03:11:42;81.47;;;77.43;;
51987;SDS011;38003;52.012;4.346;2023-11-21T03:14:11;76.30;;;72.50;;
51987;SDS011;38003;52.012;4.346;2023-11-21T03:16:40;74.47;;;70.73;;
51987;SDS011;38003;52.012;4.346;2023-11-21T03:19:11;73.43;;;69.33;;
51987;SDS011;38003;52.012;4.346;2023-11-21T03:21:41;82.60;;;78.57;;
51987;SDS011;38003;52.012;4.346;2023-11-21T03:24:09;83.13;;;78.83;;
51987;SDS011;38003;52.012;4.346;2023-11-21T03:26:37;89.90;;;85.47;;
51987;SDS011;38003;52.012;4.346;2023-11-21T03:29:05;94.77;;;90.40;;
51987;SDS011;38003;52.012;4.346;2023-11-21T03:31:34;80.37;;;76.20;;
51987;SDS011;38003;52.012;4.346;2023-11-21T03:34:03;97.17;;;92.53;;
51987;SDS011;38003;52.012;4.346;2023-11-21T03:36:32;106.33;;;101.50;;
51987;SDS011;38003;52.012;4.346;2023-11-21T03:39:00;107.27;;;102.37;;
51987;SDS011;38003;52.012;4.346;2023-11-21T03:41:29;116.00;;;110.83;;
51987;SDS011;38003;52.012;4.346;2023-11-21T03:43:57;103.77;;;98.77;;
51987;SDS011;38003;52.012;4.346;2023-11-21T03:46:25;95.67;;;91.13;;
51987;SDS011;38003;52.012;4.346;2023-11-21T03:48:54;88.90;;;84.80;;
51987;SDS011;38003;52.012;4.346;2023-11-21T03:51:24;77.50;;;73.70;;
51987;SDS011;38003;52.012;4.346;2023-11-21T03:53:52;85.87;;;81.53;;
51987;SDS011;38003;52.012;4.346;2023-11-21T03:56:20;91.00;;;86.77;;
51987;SDS011;38003;52.012;4.346;2023-11-21T03:58:49;93.13;;;88.93;;
51987;SDS011;38003;52.012;4.346;2023-11-21T04:01:20;107.70;;;102.77;;
51987;SDS011;38003;52.012;4.346;2023-11-21T04:03:49;108.83;;;104.03;;
51987;SDS011;38003;52.012;4.346;2023-11-21T04:06:18;87.47;;;83.40;;
51987;SDS011;38003;52.012;4.346;2023-11-21T04:08:47;83.20;;;79.23;;
51987;SDS011;38003;52.012;4.346;2023-11-21T04:11:15;82.73;;;78.73;;
51987;SDS011;38003;52.012;4.346;2023-11-21T04:13:44;85.23;;;81.07;;
51987;SDS011;38003;52.012;4.346;2023-11-21T04:16:13;85.43;;;81.30;;
51987;SDS011;38003;52.012;4.346;2023-11-21T04:18:41;99.50;;;94.97;;
51987;SDS011;38003;52.012;4.346;2023-11-21T04:21:10;102.87;;;98.17;;
51987;SDS011;38003;52.012;4.346;2023-11-21T04:23:38;108.43;;;103.53;;
51987;SDS011;38003;52.012;4.346;2023-11-21T04:26:08;105.13;;;100.50;;
51987;SDS011;38003;52.012;4.346;2023-11-21T04:28:36;115.17;;;109.83;;
51987;SDS011;38003;52.012;4.346;2023-11-21T04:31:05;113.30;;;108.27;;
51987;SDS011;38003;52.012;4.346;2023-11-21T04:33:33;108.60;;;103.67;;
51987;SDS011;38003;52.012;4.346;2023-11-21T04:36:01;98.87;;;94.37;;
51987;SDS011;38003;52.012;4.346;2023-11-21T04:38:30;96.93;;;92.50;;
51987;SDS011;38003;52.012;4.346;2023-11-21T04:40:59;99.77;;;95.27;;
51987;SDS011;38003;52.012;4.346;2023-11-21T04:43:30;99.27;;;94.97;;
51987;SDS011;38003;52.012;4.346;2023-11-21T04:45:58;107.63;;;102.73;;
51987;SDS011;38003;52.012;4.346;2023-11-21T04:48:28;119.17;;;114.00;;
51987;SDS011;38003;52.012;4.346;2023-11-21T04:50:57;139.63;;;133.47;;
51987;SDS011;38003;52.012;4.346;2023-11-21T04:53:25;138.73;;;132.57;;
51987;SDS011;38003;52.012;4.346;2023-11-21T04:55:53;149.03;;;142.43;;
51987;SDS011;38003;52.012;4.346;2023-11-21T04:58:21;169.70;;;162.70;;
51987;SDS011;38003;52.012;4.346;2023-11-21T05:00:52;152.00;;;145.47;;
51987;SDS011;38003;52.012;4.346;2023-11-21T05:03:21;131.87;;;126.20;;
51987;SDS011;38003;52.012;4.346;2023-11-21T05:05:50;112.20;;;107.17;;
51987;SDS011;38003;52.012;4.346;2023-11-21T05:08:19;104.57;;;99.70;;
51987;SDS011;38003;52.012;4.346;2023-11-21T05:10:48;92.97;;;88.70;;
51987;SDS011;38003;52.012;4.346;2023-11-21T05:13:17;93.43;;;89.13;;
51987;SDS011;38003;52.012;4.346;2023-11-21T05:15:46;80.90;;;77.00;;
51987;SDS011;38003;52.012;4.346;2023-11-21T05:18:16;75.63;;;72.07;;
51987;SDS011;38003;52.012;4.346;2023-11-21T05:20:44;82.43;;;78.63;;
51987;SDS011;38003;52.012;4.346;2023-11-21T05:23:13;79.17;;;75.27;;
51987;SDS011;38003;52.012;4.346;2023-11-21T05:25:42;68.67;;;65.33;;
51987;SDS011;38003;52.012;4.346;2023-11-21T05:28:10;70.47;;;66.93;;
51987;SDS011;38003;52.012;4.346;2023-11-21T05:30:38;74.03;;;70.03;;
51987;SDS011;38003;52.012;4.346;2023-11-21T05:33:07;67.40;;;64.23;;
51987;SDS011;38003;52.012;4.346;2023-11-21T05:35:36;75.53;;;71.97;;
51987;SDS011;38003;52.012;4.346;2023-11-21T05:38:05;89.73;;;85.33;;
51987;SDS011;38003;52.012;4.346;2023-11-21T05:40:33;109.10;;;104.30;;
51987;SDS011;38003;52.012;4.346;2023-11-21T05:43:02;143.70;;;137.50;;
51987;SDS011;38003;52.012;4.346;2023-11-21T05:45:31;162.90;;;156.03;;
51987;SDS011;38003;52.012;4.346;2023-11-21T05:47:59;186.63;;;179.03;;
51987;SDS011;38003;52.012;4.346;2023-11-21T05:50:29;194.20;;;186.30;;
51987;SDS011;38003;52.012;4.346;2023-11-21T05:52:58;191.20;;;183.47;;
51987;SDS011;38003;52.012;4.346;2023-11-21T05:55:27;214.17;;;205.37;;
51987;SDS011;38003;52.012;4.346;2023-11-21T05:57:55;242.17;;;232.47;;
51987;SDS011;38003;52.012;4.346;2023-11-21T06:00:24;270.47;;;259.50;;
51987;SDS011;38003;52.012;4.346;2023-11-21T06:02:53;252.73;;;242.63;;
51987;SDS011;38003;52.012;4.346;2023-11-21T06:05:24;256.53;;;246.47;;
51987;SDS011;38003;52.012;4.346;2023-11-21T06:07:53;251.13;;;241.03;;
51987;SDS011;38003;52.012;4.346;2023-11-21T06:10:24;238.47;;;228.93;;
51987;SDS011;38003;52.012;4.346;2023-11-21T06:12:52;214.07;;;205.37;;
51987;SDS011;38003;52.012;4.346;2023-11-21T06:15:21;197.40;;;189.37;;
51987;SDS011;38003;52.012;4.346;2023-11-21T06:17:50;184.13;;;176.50;;
51987;SDS011;38003;52.012;4.346;2023-11-21T06:20:20;167.47;;;160.47;;
51987;SDS011;38003;52.012;4.346;2023-11-21T06:22:49;164.00;;;157.13;;
51987;SDS011;38003;52.012;4.346;2023-11-21T06:25:18;155.90;;;149.57;;
51987;SDS011;38003;52.012;4.346;2023-11-21T06:27:48;142.90;;;136.97;;
51987;SDS011;38003;52.012;4.346;2023-11-21T06:30:17;140.77;;;134.87;;
51987;SDS011;38003;52.012;4.346;2023-11-21T06:32:46;142.33;;;136.20;;
51987;SDS011;38003;52.012;4.346;2023-11-21T06:35:16;126.93;;;121.43;;
51987;SDS011;38003;52.012;4.346;2023-11-21T06:37:44;128.80;;;123.30;;
51987;SDS011;38003;52.012;4.346;2023-11-21T06:40:15;147.00;;;140.67;;
51987;SDS011;38003;52.012;4.346;2023-11-21T06:42:44;154.43;;;147.73;;
51987;SDS011;38003;52.012;4.346;2023-11-21T06:45:14;169.13;;;161.87;;
51987;SDS011;38003;52.012;4.346;2023-11-21T06:47:43;156.83;;;150.27;;
51987;SDS011;38003;52.012;4.346;2023-11-21T06:50:12;165.43;;;158.37;;
51987;SDS011;38003;52.012;4.346;2023-11-21T06:52:40;162.00;;;155.10;;
51987;SDS011;38003;52.012;4.346;2023-11-21T06:55:09;163.13;;;156.17;;
51987;SDS011;38003;52.012;4.346;2023-11-21T06:57:37;168.90;;;161.80;;
51987;SDS011;38003;52.012;4.346;2023-11-21T07:00:06;170.80;;;163.43;;
51987;SDS011;38003;52.012;4.346;2023-11-21T07:02:37;185.20;;;177.50;;
51987;SDS011;38003;52.012;4.346;2023-11-21T07:05:06;194.77;;;186.17;;
51987;SDS011;38003;52.012;4.346;2023-11-21T07:07:35;201.43;;;192.97;;
51987;SDS011;38003;52.012;4.346;2023-11-21T07:10:04;202.73;;;194.13;;
51987;SDS011;38003;52.012;4.346;2023-11-21T07:12:32;206.33;;;197.67;;
51987;SDS011;38003;52.012;4.346;2023-11-21T07:15:01;224.60;;;215.23;;
51987;SDS011;38003;52.012;4.346;2023-11-21T07:17:31;224.90;;;215.57;;
51987;SDS011;38003;52.012;4.346;2023-11-21T07:20:05;238.93;;;229.23;;
51987;SDS011;38003;52.012;4.346;2023-11-21T07:22:34;248.43;;;237.93;;
51987;SDS011;38003;52.012;4.346;2023-11-21T07:25:02;251.37;;;240.43;;
51987;SDS011;38003;52.012;4.346;2023-11-21T07:27:30;254.17;;;243.47;;
51987;SDS011;38003;52.012;4.346;2023-11-21T07:30:00;259.30;;;248.20;;
51987;SDS011;38003;52.012;4.346;2023-11-21T07:32:30;230.93;;;220.83;;
51987;SDS011;38003;52.012;4.346;2023-11-21T07:34:59;274.80;;;263.23;;
51987;SDS011;38003;52.012;4.346;2023-11-21T07:37:29;269.23;;;257.87;;
51987;SDS011;38003;52.012;4.346;2023-11-21T07:39:57;226.23;;;216.47;;
51987;SDS011;38003;52.012;4.346;2023-11-21T07:42:25;225.07;;;215.27;;
51987;SDS011;38003;52.012;4.346;2023-11-21T07:44:54;231.33;;;221.57;;
51987;SDS011;38003;52.012;4.346;2023-11-21T07:47:22;214.80;;;205.90;;
51987;SDS011;38003;52.012;4.346;2023-11-21T07:49:53;196.90;;;188.27;;
51987;SDS011;38003;52.012;4.346;2023-11-21T07:52:23;198.53;;;190.10;;
51987;SDS011;38003;52.012;4.346;2023-11-21T07:54:52;185.67;;;177.53;;
51987;SDS011;38003;52.012;4.346;2023-11-21T07:57:21;170.47;;;162.77;;
51987;SDS011;38003;52.012;4.346;2023-11-21T07:59:49;173.13;;;165.60;;
51987;SDS011;38003;52.012;4.346;2023-11-21T08:02:20;162.10;;;155.00;;
51987;SDS011;38003;52.012;4.346;2023-11-21T08:04:48;160.50;;;153.47;;
51987;SDS011;38003;52.012;4.346;2023-11-21T08:07:17;160.10;;;153.10;;
51987;SDS011;38003;52.012;4.346;2023-11-21T08:09:45;153.40;;;146.77;;
51987;SDS011;38003;52.012;4.346;2023-11-21T08:12:17;157.37;;;150.53;;
51987;SDS011;38003;52.012;4.346;2023-11-21T08:14:46;154.30;;;147.67;;
51987;SDS011;38003;52.012;4.346;2023-11-21T08:17:14;139.97;;;133.67;;
51987;SDS011;38003;52.012;4.346;2023-11-21T08:19:44;140.80;;;134.40;;
51987;SDS011;38003;52.012;4.346;2023-11-21T08:22:15;149.90;;;143.00;;
51987;SDS011;38003;52.012;4.346;2023-11-21T08:24:44;137.93;;;131.83;;
51987;SDS011;38003;52.012;4.346;2023-11-21T08:27:13;139.27;;;133.20;;
51987;SDS011;38003;52.012;4.346;2023-11-21T08:29:43;153.67;;;146.77;;
51987;SDS011;38003;52.012;4.346;2023-11-21T08:32:12;150.07;;;143.30;;
51987;SDS011;38003;52.012;4.346;2023-11-21T08:34:41;159.50;;;152.27;;
51987;SDS011;38003;52.012;4.346;2023-11-21T08:37:11;149.67;;;142.90;;
51987;SDS011;38003;52.012;4.346;2023-11-21T08:39:39;173.90;;;166.53;;
51987;SDS011;38003;52.012;4.346;2023-11-21T08:42:08;160.57;;;153.40;;
51987;SDS011;38003;52.012;4.346;2023-11-21T08:44:36;143.40;;;136.90;;
51987;SDS011;38003;52.012;4.346;2023-11-21T08:47:06;127.60;;;121.67;;
51987;SDS011;38003;52.012;4.346;2023-11-21T08:49:34;129.93;;;124.03;;
51987;SDS011;38003;52.012;4.346;2023-11-21T08:52:04;128.47;;;122.60;;
51987;SDS011;38003;52.012;4.346;2023-11-21T08:54:33;119.50;;;114.07;;
51987;SDS011;38003;52.012;4.346;2023-11-21T08:57:02;130.03;;;124.20;;
51987;SDS011;38003;52.012;4.346;2023-11-21T08:59:31;132.90;;;126.93;;
51987;SDS011;38003;52.012;4.346;2023-11-21T09:01:59;127.03;;;121.40;;
51987;SDS011;38003;52.012;4.346;2023-11-21T09:04:29;122.53;;;117.20;;
51987;SDS011;38003;52.012;4.346;2023-11-21T09:06:58;114.13;;;109.10;;
51987;SDS011;38003;52.012;4.346;2023-11-21T09:09:26;98.67;;;94.43;;
51987;SDS011;38003;52.012;4.346;2023-11-21T09:11:56;102.87;;;97.77;;
51987;SDS011;38003;52.012;4.346;2023-11-21T09:14:26;100.50;;;96.03;;
51987;SDS011;38003;52.012;4.346;2023-11-21T09:16:55;107.70;;;102.90;;
51987;SDS011;38003;52.012;4.346;2023-11-21T09:19:23;95.00;;;90.77;;
51987;SDS011;38003;52.012;4.346;2023-11-21T09:21:53;102.70;;;98.13;;
51987;SDS011;38003;52.012;4.346;2023-11-21T09:24:23;104.40;;;99.67;;
51987;SDS011;38003;52.012;4.346;2023-11-21T09:26:52;97.83;;;93.20;;
51987;SDS011;38003;52.012;4.346;2023-11-21T09:29:20;99.40;;;94.70;;
51987;SDS011;38003;52.012;4.346;2023-11-21T09:31:49;95.27;;;91.07;;
51987;SDS011;38003;52.012;4.346;2023-11-21T09:34:17;101.10;;;96.63;;
51987;SDS011;38003;52.012;4.346;2023-11-21T09:36:46;93.70;;;89.40;;
51987;SDS011;38003;52.012;4.346;2023-11-21T09:39:17;97.00;;;92.30;;
51987;SDS011;38003;52.012;4.346;2023-11-21T09:41:46;78.20;;;74.63;;
51987;SDS011;38003;52.012;4.346;2023-11-21T09:44:17;73.20;;;69.80;;
51987;SDS011;38003;52.012;4.346;2023-11-21T09:46:47;82.17;;;78.37;;
51987;SDS011;38003;52.012;4.346;2023-11-21T09:49:17;66.37;;;63.27;;
51987;SDS011;38003;52.012;4.346;2023-11-21T09:51:46;62.57;;;59.67;;
51987;SDS011;38003;52.012;4.346;2023-11-21T09:54:17;70.23;;;67.13;;
51987;SDS011;38003;52.012;4.346;2023-11-21T09:56:47;65.97;;;62.97;;
51987;SDS011;38003;52.012;4.346;2023-11-21T09:59:16;60.37;;;57.37;;
51987;SDS011;38003;52.012;4.346;2023-11-21T10:01:45;61.27;;;58.23;;
51987;SDS011;38003;52.012;4.346;2023-11-21T10:04:13;60.63;;;57.53;;
51987;SDS011;38003;52.012;4.346;2023-11-21T10:06:43;62.23;;;59.03;;
51987;SDS011;38003;52.012;4.346;2023-11-21T10:09:13;58.00;;;55.13;;
51987;SDS011;38003;52.012;4.346;2023-11-21T10:11:43;64.87;;;61.77;;
51987;SDS011;38003;52.012;4.346;2023-11-21T10:14:12;66.37;;;63.10;;
51987;SDS011;38003;52.012;4.346;2023-11-21T10:16:41;59.73;;;56.83;;
51987;SDS011;38003;52.012;4.346;2023-11-21T10:19:10;72.20;;;68.90;;
51987;SDS011;38003;52.012;4.346;2023-11-21T10:21:39;51.43;;;48.87;;
51987;SDS011;38003;52.012;4.346;2023-11-21T10:24:08;58.37;;;55.50;;
51987;SDS011;38003;52.012;4.346;2023-11-21T10:26:36;52.60;;;50.00;;
51987;SDS011;38003;52.012;4.346;2023-11-21T10:29:20;50.53;;;48.03;;
51987;SDS011;38003;52.012;4.346;2023-11-21T10:31:49;45.77;;;43.57;;
51987;SDS011;38003;52.012;4.346;2023-11-21T10:34:18;37.80;;;35.90;;
51987;SDS011;38003;52.012;4.346;2023-11-21T10:36:47;36.53;;;34.63;;
51987;SDS011;38003;52.012;4.346;2023-11-21T10:39:16;44.33;;;42.20;;
51987;SDS011;38003;52.012;4.346;2023-11-21T10:41:46;40.77;;;38.77;;
51987;SDS011;38003;52.012;4.346;2023-11-21T10:44:14;35.37;;;33.67;;
51987;SDS011;38003;52.012;4.346;2023-11-21T10:46:49;41.73;;;39.53;;
51987;SDS011;38003;52.012;4.346;2023-11-21T10:49:18;46.37;;;44.03;;
51987;SDS011;38003;52.012;4.346;2023-11-21T10:51:46;45.83;;;43.57;;
51987;SDS011;38003;52.012;4.346;2023-11-21T10:54:18;38.17;;;36.20;;
51987;SDS011;38003;52.012;4.346;2023-11-21T10:56:47;45.70;;;43.33;;
51987;SDS011;38003;52.012;4.346;2023-11-21T10:59:17;49.90;;;47.60;;
51987;SDS011;38003;52.012;4.346;2023-11-21T11:01:49;58.17;;;55.37;;
51987;SDS011;38003;52.012;4.346;2023-11-21T11:04:19;35.37;;;33.50;;
51987;SDS011;38003;52.012;4.346;2023-11-21T11:06:50;34.23;;;32.43;;
51987;SDS011;38003;52.012;4.346;2023-11-21T11:09:19;32.30;;;30.60;;
51987;SDS011;38003;52.012;4.346;2023-11-21T11:11:48;39.97;;;37.97;;
51987;SDS011;38003;52.012;4.346;2023-11-21T11:14:16;28.20;;;26.63;;
51987;SDS011;38003;52.012;4.346;2023-11-21T11:16:46;24.37;;;23.17;;
51987;SDS011;38003;52.012;4.346;2023-11-21T11:19:17;23.03;;;21.73;;
51987;SDS011;38003;52.012;4.346;2023-11-21T11:21:46;17.87;;;16.87;;
51987;SDS011;38003;52.012;4.346;2023-11-21T11:24:22;18.40;;;17.40;;
51987;SDS011;38003;52.012;4.346;2023-11-21T11:26:55;19.60;;;18.47;;
51987;SDS011;38003;52.012;4.346;2023-11-21T11:29:27;19.40;;;18.17;;
51987;SDS011;38003;52.012;4.346;2023-11-21T11:32:02;22.50;;;21.20;;
51987;SDS011;38003;52.012;4.346;2023-11-21T11:34:35;24.37;;;22.80;;
51987;SDS011;38003;52.012;4.346;2023-11-21T11:37:06;17.47;;;16.33;;
51987;SDS011;38003;52.012;4.346;2023-11-21T11:39:35;20.40;;;19.10;;
51987;SDS011;38003;52.012;4.346;2023-11-21T11:42:06;16.33;;;15.23;;
51987;SDS011;38003;52.012;4.346;2023-11-21T11:44:51;20.37;;;19.17;;
51987;SDS011;38003;52.012;4.346;2023-11-21T11:47:25;19.30;;;17.97;;
51987;SDS011;38003;52.012;4.346;2023-11-21T11:50:01;22.40;;;20.87;;
51987;SDS011;38003;52.012;4.346;2023-11-21T11:52:37;24.60;;;23.13;;
51987;SDS011;38003;52.012;4.346;2023-11-21T11:55:07;22.87;;;21.30;;
51987;SDS011;38003;52.012;4.346;2023-11-21T11:57:37;20.00;;;18.60;;
51987;SDS011;38003;52.012;4.346;2023-11-21T12:00:15;22.87;;;21.37;;
51987;SDS011;38003;52.012;4.346;2023-11-21T12:02:46;16.13;;;14.97;;
51987;SDS011;38003;52.012;4.346;2023-11-21T12:05:16;16.17;;;14.97;;
51987;SDS011;38003;52.012;4.346;2023-11-21T12:07:46;14.70;;;13.70;;
51987;SDS011;38003;52.012;4.346;2023-11-21T12:10:15;16.43;;;15.23;;
51987;SDS011;38003;52.012;4.346;2023-11-21T12:12:45;12.03;;;11.13;;
51987;SDS011;38003;52.012;4.346;2023-11-21T12:15:13;9.53;;;8.73;;
51987;SDS011;38003;52.012;4.346;2023-11-21T12:17:42;7.67;;;7.07;;
51987;SDS011;38003;52.012;4.346;2023-11-21T12:20:11;7.80;;;7.00;;
51987;SDS011;38003;52.012;4.346;2023-11-21T12:22:45;7.20;;;6.60;;
51987;SDS011;38003;52.012;4.346;2023-11-21T12:25:17;7.73;;;7.00;;
51987;SDS011;38003;52.012;4.346;2023-11-21T12:27:46;11.80;;;10.90;;
51987;SDS011;38003;52.012;4.346;2023-11-21T12:30:16;11.73;;;10.73;;
51987;SDS011;38003;52.012;4.346;2023-11-21T12:32:48;9.07;;;8.37;;
51987;SDS011;38003;52.012;4.346;2023-11-21T12:35:17;7.90;;;7.20;;
51987;SDS011;38003;52.012;4.346;2023-11-21T12:37:49;7.93;;;7.13;;
51987;SDS011;38003;52.012;4.346;2023-11-21T12:40:18;7.03;;;6.43;;
51987;SDS011;38003;52.012;4.346;2023-11-21T12:42:50;6.20;;;5.60;;
51987;SDS011;38003;52.012;4.346;2023-11-21T12:45:20;6.20;;;5.60;;
51987;SDS011;38003;52.012;4.346;2023-11-21T12:47:48;5.73;;;5.13;;
51987;SDS011;38003;52.012;4.346;2023-11-21T12:50:18;6.33;;;5.73;;
51987;SDS011;38003;52.012;4.346;2023-11-21T12:52:51;6.80;;;4.90;;
51987;SDS011;38003;52.012;4.346;2023-11-21T12:55:20;6.80;;;5.13;;
51987;SDS011;38003;52.012;4.346;2023-11-21T12:57:49;6.20;;;5.43;;
51987;SDS011;38003;52.012;4.346;2023-11-21T13:00:26;6.43;;;5.40;;
51987;SDS011;38003;52.012;4.346;2023-11-21T13:02:57;5.87;;;5.20;;
51987;SDS011;38003;52.012;4.346;2023-11-21T13:05:29;5.33;;;4.83;;
51987;SDS011;38003;52.012;4.346;2023-11-21T13:08:01;6.03;;;5.10;;
51987;SDS011;38003;52.012;4.346;2023-11-21T13:10:30;5.20;;;4.70;;
51987;SDS011;38003;52.012;4.346;2023-11-21T13:13:02;5.27;;;4.77;;
51987;SDS011;38003;52.012;4.346;2023-11-21T13:15:31;6.07;;;5.20;;
51987;SDS011;38003;52.012;4.346;2023-11-21T13:18:01;6.37;;;5.33;;
51987;SDS011;38003;52.012;4.346;2023-11-21T13:20:29;5.47;;;4.97;;
51987;SDS011;38003;52.012;4.346;2023-11-21T13:23:00;6.83;;;6.23;;
51987;SDS011;38003;52.012;4.346;2023-11-21T13:25:29;5.67;;;5.10;;
51987;SDS011;38003;52.012;4.346;2023-11-21T13:27:58;9.33;;;5.10;;
51987;SDS011;38003;52.012;4.346;2023-11-21T13:30:27;7.67;;;5.00;;
51987;SDS011;38003;52.012;4.346;2023-11-21T13:32:59;13.97;;;5.50;;
51987;SDS011;38003;52.012;4.346;2023-11-21T13:35:28;7.13;;;4.97;;
51987;SDS011;38003;52.012;4.346;2023-11-21T13:38:04;12.40;;;5.70;;
51987;SDS011;38003;52.012;4.346;2023-11-21T13:40:33;6.33;;;5.10;;
51987;SDS011;38003;52.012;4.346;2023-11-21T13:43:09;6.47;;;5.13;;
51987;SDS011;38003;52.012;4.346;2023-11-21T13:45:37;6.57;;;4.97;;
51987;SDS011;38003;52.012;4.346;2023-11-21T13:48:09;6.70;;;5.07;;
51987;SDS011;38003;52.012;4.346;2023-11-21T13:50:40;6.17;;;5.20;;
51987;SDS011;38003;52.012;4.346;2023-11-21T13:53:16;5.77;;;4.80;;
51987;SDS011;38003;52.012;4.346;2023-11-21T13:55:49;6.13;;;4.80;;
51987;SDS011;38003;52.012;4.346;2023-11-21T13:58:20;5.13;;;4.63;;
51987;SDS011;38003;52.012;4.346;2023-11-21T14:00:52;6.57;;;5.00;;
51987;SDS011;38003;52.012;4.346;2023-11-21T14:03:23;7.63;;;5.10;;
51987;SDS011;38003;52.012;4.346;2023-11-21T14:05:59;6.97;;;4.90;;
51987;SDS011;38003;52.012;4.346;2023-11-21T14:08:36;6.13;;;5.10;;
51987;SDS011;38003;52.012;4.346;2023-11-21T14:11:05;6.00;;;5.17;;
51987;SDS011;38003;52.012;4.346;2023-11-21T14:13:33;6.07;;;5.47;;
51987;SDS011;38003;52.012;4.346;2023-11-21T14:16:01;6.43;;;5.10;;
51987;SDS011;38003;52.012;4.346;2023-11-21T14:18:33;7.30;;;4.87;;
51987;SDS011;38003;52.012;4.346;2023-11-21T14:21:05;5.53;;;4.50;;
51987;SDS011;38003;52.012;4.346;2023-11-21T14:23:34;5.40;;;4.90;;
51987;SDS011;38003;52.012;4.346;2023-11-21T14:26:07;7.77;;;5.73;;
51987;SDS011;38003;52.012;4.346;2023-11-21T14:28:35;5.73;;;5.10;;
51987;SDS011;38003;52.012;4.346;2023-11-21T14:31:03;8.20;;;6.20;;